Romoe Maersk — OXLC2 — position and weather

sailwx.info

Track history (hours):
 
Tides and Currents Weather Stations Pressure Air Temp Water Temp Dewpoint Dewpoint Depression Visibility Wind Speed Wind Dir Waves Ship Positions

Romoe Maersk

Last reported at 2014-Sep-17 22:32 UTC. Time now 2014-Sep-17 23:36 UTC.
Position N 39°04' E 009°04'.

Length 171 m; draft 6.5 m.

Type: Ship. MMSI: 220209000.

Date/timePositionNaut miles runAvg speedWind from/ knotsBaromVisibWave heightAir tempDewpointWater temp
2014-Sep-17 22:32N 39°04' E 009°04'0 0.0
2014-Sep-17 21:29N 39°04' E 009°04'0 0.0
2014-Sep-17 20:32N 39°04' E 009°04'0 0.0
2014-Sep-17 19:32N 39°04' E 009°04'0 0.0
2014-Sep-17 18:32N 39°04' E 009°04'0 0.0
2014-Sep-17 17:32N 39°04' E 009°04'0 0.0
2014-Sep-17 16:32N 39°04' E 009°04'0 0.0
2014-Sep-17 15:32N 39°04' E 009°04'0 0.0
2014-Sep-17 14:32N 39°04' E 009°04'0 0.0
2014-Sep-17 13:32N 39°04' E 009°04'0 0.0
2014-Sep-17 12:32N 39°04' E 009°04'0 0.0
2014-Sep-17 11:32N 39°04' E 009°04'0 0.0
2014-Sep-17 10:32N 39°04' E 009°04'0 0.0
2014-Sep-17 09:32N 39°04' E 009°04'0 0.0
2014-Sep-17 08:32N 39°04' E 009°04'0 0.0
2014-Sep-17 07:32N 39°04' E 009°04'0 0.0
2014-Sep-17 06:32N 39°04' E 009°04'0 0.0
2014-Sep-17 05:32N 39°04' E 009°04'0 0.0
2014-Sep-17 04:32N 39°04' E 009°04'0 0.0
2014-Sep-17 03:32N 39°04' E 009°04'0 0.0
2014-Sep-17 02:29N 39°04' E 009°04'2 2.3
2014-Sep-17 01:32N 39°05' E 009°02'0 0.0
2014-Sep-17 00:32N 39°05' E 009°02'0 0.0
2014-Sep-16 23:32N 39°05' E 009°02'0 0.0
2014-Sep-16 22:32N 39°05' E 009°02'0 0.0
2014-Sep-16 21:32N 39°05' E 009°02'0 0.0
2014-Sep-16 20:32N 39°05' E 009°02'0 0.0
2014-Sep-16 19:32N 39°05' E 009°02'0 0.0
2014-Sep-16 18:32N 39°05' E 009°02'0 0.0
2014-Sep-16 17:32N 39°05' E 009°02'0 0.0
2014-Sep-16 16:32N 39°05' E 009°02'0 0.0
2014-Sep-16 15:32N 39°05' E 009°02'0 0.0
2014-Sep-16 14:32N 39°05' E 009°02'0 0.0
2014-Sep-16 13:32N 39°05' E 009°02'0 0.0
2014-Sep-16 12:32N 39°05' E 009°02'0 0.0
2014-Sep-16 11:32N 39°05' E 009°02'0 0.0
2014-Sep-16 10:32N 39°05' E 009°02'2 2.4
2014-Sep-16 09:33N 39°04' E 009°04'1 0.6
2014-Sep-16 08:28N 39°03' E 009°04'0 0.0
2014-Sep-16 07:31N 39°03' E 009°04'0 0.0
2014-Sep-16 06:31N 39°03' E 009°04'0 0.0
2014-Sep-16 05:31N 39°03' E 009°04'0 0.0
2014-Sep-16 04:31N 39°03' E 009°04'0 0.0
2014-Sep-16 03:31N 39°03' E 009°04'0 0.1
2014-Sep-16 02:31N 39°03' E 009°04'0 0.0
2014-Sep-16 01:31N 39°03' E 009°04'0 0.0
2014-Sep-16 00:31N 39°03' E 009°04'0 0.0
2014-Sep-15 23:31N 39°03' E 009°04'0 0.0
2014-Sep-15 22:31N 39°03' E 009°04'0 0.1
2014-Sep-15 21:34N 39°03' E 009°04'0 0.0
2014-Sep-15 20:33N 39°03' E 009°04'2 2.2
2014-Sep-15 19:33N 39°01' E 009°06'9 9.1
2014-Sep-15 18:33N 38°52' E 009°08'4 3.6
2014-Sep-15 17:33N 38°49' E 009°10'1 0.9
2014-Sep-15 16:32N 38°49' E 009°11'0 0.3
2014-Sep-15 15:33N 38°49' E 009°11'1 0.5
2014-Sep-15 14:22N 38°48' E 009°11'0 0.6
2014-Sep-15 13:33N 38°48' E 009°12'1 0.6
2014-Sep-15 12:32N 38°48' E 009°12'1 1.1
2014-Sep-15 11:33N 38°48' E 009°14'2 2.0
2014-Sep-15 10:31N 38°48' E 009°11'1 0.8
2014-Sep-15 09:33N 38°49' E 009°11'1 0.8
2014-Sep-15 08:32N 38°49' E 009°10'1 1.0
2014-Sep-15 07:32N 38°49' E 009°12'1 0.2
2014-Sep-15 02:25N 38°49' E 009°13'2 0.3
2014-Sep-14 20:23N 38°48' E 009°14'25 8.0
2014-Sep-14 17:14N 39°02' E 009°41'16 8.9
2014-Sep-14 15:25N 39°17' E 009°49'8 8.8
2014-Sep-14 14:30N 39°24' E 009°52'167 9.8
2014-Sep-13 21:31N 42°11' E 009°48'9 8.9
2014-Sep-13 20:28N 42°20' E 009°47'8 8.5
2014-Sep-13 19:32N 42°28' E 009°45'20 8.5
2014-Sep-13 17:08N 42°48' E 009°42'28 7.9
2014-Sep-13 13:33N 43°14' E 009°27'8 8.5
2014-Sep-13 12:33N 43°22' E 009°21'1010.4
2014-Sep-13 11:33N 43°31' E 009°14'1312.8
2014-Sep-13 10:33N 43°42' E 009°05'1312.5
2014-Sep-13 09:33N 43°53' E 008°58'1212.5
2014-Sep-13 08:33N 44°05' E 008°52'1312.6
2014-Sep-13 07:31N 44°18' E 008°46'8 8.3
2014-Sep-13 06:33N 44°25' E 008°50'0 0.3
2014-Sep-13 05:33N 44°25' E 008°50'0 0.0
2014-Sep-13 03:33N 44°25' E 008°50'0 0.0
2014-Sep-13 02:33N 44°25' E 008°50'0 0.0
2014-Sep-13 01:33N 44°25' E 008°50'0 0.0
2014-Sep-13 00:33N 44°25' E 008°50'0 0.0
2014-Sep-12 23:33N 44°25' E 008°50'0 0.0
2014-Sep-12 22:33N 44°25' E 008°50'0 0.0
2014-Sep-12 21:33N 44°25' E 008°50'0 0.0
2014-Sep-12 20:29N 44°25' E 008°50'0 0.0
2014-Sep-12 19:30N 44°25' E 008°50'0 0.0
2014-Sep-12 18:33N 44°25' E 008°50'0 0.0
2014-Sep-12 17:33N 44°25' E 008°50'0 0.0
2014-Sep-12 16:33N 44°25' E 008°50'0 0.0
2014-Sep-12 15:33N 44°25' E 008°50'0 0.0
2014-Sep-12 14:33N 44°25' E 008°50'0 0.0
2014-Sep-12 13:33N 44°25' E 008°50'0 0.0
2014-Sep-12 12:33N 44°25' E 008°50'0 0.0
2014-Sep-12 11:33N 44°25' E 008°50'0 0.0
2014-Sep-12 10:33N 44°25' E 008°50'0 0.0
2014-Sep-12 09:32N 44°25' E 008°50'0 0.0
2014-Sep-12 08:33N 44°25' E 008°50'0 0.0
2014-Sep-12 07:33N 44°25' E 008°50'0 0.0
2014-Sep-12 06:33N 44°25' E 008°50'0 0.0
2014-Sep-12 05:30N 44°25' E 008°50'0 0.0
2014-Sep-12 04:32N 44°25' E 008°50'0 0.0
2014-Sep-12 03:33N 44°25' E 008°50'0 0.0
2014-Sep-12 02:33N 44°25' E 008°50'0 0.0
2014-Sep-12 01:33N 44°25' E 008°50'0 0.0
2014-Sep-12 00:33N 44°25' E 008°50'0 0.0
2014-Sep-11 23:33N 44°25' E 008°50'0 0.0
2014-Sep-11 22:33N 44°25' E 008°50'0 0.0
2014-Sep-11 21:33N 44°25' E 008°50'0 0.0
2014-Sep-11 20:31N 44°25' E 008°50'0 0.0
2014-Sep-11 19:27N 44°25' E 008°50'0 0.0
2014-Sep-11 18:33N 44°25' E 008°50'0 0.0
2014-Sep-11 17:32N 44°25' E 008°50'0 0.0
2014-Sep-11 16:33N 44°25' E 008°50'0 0.0
2014-Sep-11 15:33N 44°25' E 008°50'0 0.0
2014-Sep-11 14:33N 44°25' E 008°50'0 0.0
2014-Sep-11 13:28N 44°25' E 008°50'0 0.0
2014-Sep-11 12:33N 44°25' E 008°50'0 0.0
2014-Sep-11 11:33N 44°25' E 008°50'0 0.0
2014-Sep-11 10:33N 44°25' E 008°50'0 0.0
2014-Sep-11 09:28N 44°25' E 008°50'0 0.0
2014-Sep-11 08:33N 44°25' E 008°50'0 0.0
2014-Sep-11 07:28N 44°25' E 008°50'0 0.0
2014-Sep-11 06:33N 44°25' E 008°50'0 0.1
2014-Sep-11 05:33N 44°25' E 008°50'6 6.1
2014-Sep-11 04:33N 44°20' E 008°47'1111.1
2014-Sep-11 03:33N 44°09' E 008°51'0 0.1
2014-Sep-11 02:33N 44°09' E 008°51'1 0.5
2014-Sep-11 01:33N 44°09' E 008°51'0 0.3
2014-Sep-11 00:33N 44°10' E 008°51'0 0.2
2014-Sep-10 23:33N 44°10' E 008°51'0 0.2
2014-Sep-10 22:33N 44°10' E 008°52'0 0.3
2014-Sep-10 21:33N 44°10' E 008°52'0 0.4
2014-Sep-10 20:33N 44°11' E 008°52'0 0.3
2014-Sep-10 19:33N 44°11' E 008°51'0 0.4
2014-Sep-10 18:33N 44°11' E 008°51'0 0.3
2014-Sep-10 17:33N 44°12' E 008°51'1 0.6
2014-Sep-10 16:33N 44°12' E 008°51'0 0.3
2014-Sep-10 15:33N 44°12' E 008°51'0 0.2
2014-Sep-10 14:33N 44°12' E 008°51'0 0.2
2014-Sep-10 13:33N 44°12' E 008°50'0 0.3
2014-Sep-10 12:33N 44°12' E 008°50'0 0.1
2014-Sep-10 11:33N 44°12' E 008°50'0 0.3
2014-Sep-10 10:33N 44°12' E 008°50'1 0.6
2014-Sep-10 09:33N 44°11' E 008°51'1 0.5
2014-Sep-10 08:18N 44°11' E 008°51'0 0.3
2014-Sep-10 07:33N 44°11' E 008°51'0 0.2
2014-Sep-10 06:31N 44°11' E 008°52'0 0.2
2014-Sep-10 04:30N 44°11' E 008°52'0 0.1
2014-Sep-10 03:33N 44°11' E 008°52'0 0.5
2014-Sep-10 02:33N 44°11' E 008°52'1 0.9
2014-Sep-10 01:33N 44°12' E 008°52'0 0.3
2014-Sep-10 00:32N 44°12' E 008°51'0 0.2
2014-Sep-09 23:31N 44°12' E 008°51'0 0.2
2014-Sep-09 22:33N 44°12' E 008°51'0 0.2
2014-Sep-09 21:33N 44°11' E 008°51'4 3.7
2014-Sep-09 20:33N 44°15' E 008°51'2 1.7
2014-Sep-09 19:32N 44°17' E 008°49'1111.3
2014-Sep-09 18:33N 44°06' E 008°52'1211.6
2014-Sep-09 17:33N 43°55' E 008°57'1211.9
2014-Sep-09 16:33N 43°44' E 009°04'1211.5
2014-Sep-09 15:33N 43°34' E 009°12'1111.3
2014-Sep-09 14:33N 43°24' E 009°19'1111.4
2014-Sep-09 13:33N 43°14' E 009°27'1212.3
2014-Sep-09 12:33N 43°03' E 009°35'40811.3
2014-Sep-08 00:33N 36°54' E 013°22'1111.4
2014-Sep-07 23:33N 36°47' E 013°33'  
Track history (hours):
 
Tides and Currents Weather Stations Pressure Air Temp Water Temp Dewpoint Dewpoint Depression Visibility Wind Speed Wind Dir Waves Ship Positions

Romoe Maersk

Last reported at 2014-Sep-17 22:32 UTC. Time now 2014-Sep-17 23:36 UTC.
Position N 39°04' E 009°04'.

Length 171 m; draft 6.5 m.

Type: Ship. MMSI: 220209000.

Date/timePositionNaut miles runAvg speedWind from/ knotsBaromVisibWave heightAir tempDewpointWater temp
2014-Sep-17 22:32N 39°04' E 009°04'0 0.0
2014-Sep-17 21:29N 39°04' E 009°04'0 0.0
2014-Sep-17 20:32N 39°04' E 009°04'0 0.0
2014-Sep-17 19:32N 39°04' E 009°04'0 0.0
2014-Sep-17 18:32N 39°04' E 009°04'0 0.0
2014-Sep-17 17:32N 39°04' E 009°04'0 0.0
2014-Sep-17 16:32N 39°04' E 009°04'0 0.0
2014-Sep-17 15:32N 39°04' E 009°04'0 0.0
2014-Sep-17 14:32N 39°04' E 009°04'0 0.0
2014-Sep-17 13:32N 39°04' E 009°04'0 0.0
2014-Sep-17 12:32N 39°04' E 009°04'0 0.0
2014-Sep-17 11:32N 39°04' E 009°04'0 0.0
2014-Sep-17 10:32N 39°04' E 009°04'0 0.0
2014-Sep-17 09:32N 39°04' E 009°04'0 0.0
2014-Sep-17 08:32N 39°04' E 009°04'0 0.0
2014-Sep-17 07:32N 39°04' E 009°04'0 0.0
2014-Sep-17 06:32N 39°04' E 009°04'0 0.0
2014-Sep-17 05:32N 39°04' E 009°04'0 0.0
2014-Sep-17 04:32N 39°04' E 009°04'0 0.0
2014-Sep-17 03:32N 39°04' E 009°04'0 0.0
2014-Sep-17 02:29N 39°04' E 009°04'2 2.3
2014-Sep-17 01:32N 39°05' E 009°02'0 0.0
2014-Sep-17 00:32N 39°05' E 009°02'0 0.0
2014-Sep-16 23:32N 39°05' E 009°02'0 0.0
2014-Sep-16 22:32N 39°05' E 009°02'0 0.0
2014-Sep-16 21:32N 39°05' E 009°02'0 0.0
2014-Sep-16 20:32N 39°05' E 009°02'0 0.0
2014-Sep-16 19:32N 39°05' E 009°02'0 0.0
2014-Sep-16 18:32N 39°05' E 009°02'0 0.0
2014-Sep-16 17:32N 39°05' E 009°02'0 0.0
2014-Sep-16 16:32N 39°05' E 009°02'0 0.0
2014-Sep-16 15:32N 39°05' E 009°02'0 0.0
2014-Sep-16 14:32N 39°05' E 009°02'0 0.0
2014-Sep-16 13:32N 39°05' E 009°02'0 0.0
2014-Sep-16 12:32N 39°05' E 009°02'0 0.0
2014-Sep-16 11:32N 39°05' E 009°02'0 0.0
2014-Sep-16 10:32N 39°05' E 009°02'2 2.4
2014-Sep-16 09:33N 39°04' E 009°04'1 0.6
2014-Sep-16 08:28N 39°03' E 009°04'0 0.0
2014-Sep-16 07:31N 39°03' E 009°04'0 0.0
2014-Sep-16 06:31N 39°03' E 009°04'0 0.0
2014-Sep-16 05:31N 39°03' E 009°04'0 0.0
2014-Sep-16 04:31N 39°03' E 009°04'0 0.0
2014-Sep-16 03:31N 39°03' E 009°04'0 0.1
2014-Sep-16 02:31N 39°03' E 009°04'0 0.0
2014-Sep-16 01:31N 39°03' E 009°04'0 0.0
2014-Sep-16 00:31N 39°03' E 009°04'0 0.0
2014-Sep-15 23:31N 39°03' E 009°04'0 0.0
2014-Sep-15 22:31N 39°03' E 009°04'0 0.1
2014-Sep-15 21:34N 39°03' E 009°04'0 0.0
2014-Sep-15 20:33N 39°03' E 009°04'2 2.2
2014-Sep-15 19:33N 39°01' E 009°06'9 9.1
2014-Sep-15 18:33N 38°52' E 009°08'4 3.6
2014-Sep-15 17:33N 38°49' E 009°10'1 0.9
2014-Sep-15 16:32N 38°49' E 009°11'0 0.3
2014-Sep-15 15:33N 38°49' E 009°11'1 0.5
2014-Sep-15 14:22N 38°48' E 009°11'0 0.6
2014-Sep-15 13:33N 38°48' E 009°12'1 0.6
2014-Sep-15 12:32N 38°48' E 009°12'1 1.1
2014-Sep-15 11:33N 38°48' E 009°14'2 2.0
2014-Sep-15 10:31N 38°48' E 009°11'1 0.8
2014-Sep-15 09:33N 38°49' E 009°11'1 0.8
2014-Sep-15 08:32N 38°49' E 009°10'1 1.0
2014-Sep-15 07:32N 38°49' E 009°12'1 0.2
2014-Sep-15 02:25N 38°49' E 009°13'2 0.3
2014-Sep-14 20:23N 38°48' E 009°14'25 8.0
2014-Sep-14 17:14N 39°02' E 009°41'16 8.9
2014-Sep-14 15:25N 39°17' E 009°49'8 8.8
2014-Sep-14 14:30N 39°24' E 009°52'167 9.8
2014-Sep-13 21:31N 42°11' E 009°48'9 8.9
2014-Sep-13 20:28N 42°20' E 009°47'8 8.5
2014-Sep-13 19:32N 42°28' E 009°45'20 8.5
2014-Sep-13 17:08N 42°48' E 009°42'28 7.9
2014-Sep-13 13:33N 43°14' E 009°27'8 8.5
2014-Sep-13 12:33N 43°22' E 009°21'1010.4
2014-Sep-13 11:33N 43°31' E 009°14'1312.8
2014-Sep-13 10:33N 43°42' E 009°05'1312.5
2014-Sep-13 09:33N 43°53' E 008°58'1212.5
2014-Sep-13 08:33N 44°05' E 008°52'1312.6
2014-Sep-13 07:31N 44°18' E 008°46'8 8.3
2014-Sep-13 06:33N 44°25' E 008°50'0 0.3
2014-Sep-13 05:33N 44°25' E 008°50'0 0.0
2014-Sep-13 03:33N 44°25' E 008°50'0 0.0
2014-Sep-13 02:33N 44°25' E 008°50'0 0.0
2014-Sep-13 01:33N 44°25' E 008°50'0 0.0
2014-Sep-13 00:33N 44°25' E 008°50'0 0.0
2014-Sep-12 23:33N 44°25' E 008°50'0 0.0
2014-Sep-12 22:33N 44°25' E 008°50'0 0.0
2014-Sep-12 21:33N 44°25' E 008°50'0 0.0
2014-Sep-12 20:29N 44°25' E 008°50'0 0.0
2014-Sep-12 19:30N 44°25' E 008°50'0 0.0
2014-Sep-12 18:33N 44°25' E 008°50'0 0.0
2014-Sep-12 17:33N 44°25' E 008°50'0 0.0
2014-Sep-12 16:33N 44°25' E 008°50'0 0.0
2014-Sep-12 15:33N 44°25' E 008°50'0 0.0
2014-Sep-12 14:33N 44°25' E 008°50'0 0.0
2014-Sep-12 13:33N 44°25' E 008°50'0 0.0
2014-Sep-12 12:33N 44°25' E 008°50'0 0.0
2014-Sep-12 11:33N 44°25' E 008°50'0 0.0
2014-Sep-12 10:33N 44°25' E 008°50'0 0.0
2014-Sep-12 09:32N 44°25' E 008°50'0 0.0
2014-Sep-12 08:33N 44°25' E 008°50'0 0.0
2014-Sep-12 07:33N 44°25' E 008°50'0 0.0
2014-Sep-12 06:33N 44°25' E 008°50'0 0.0
2014-Sep-12 05:30N 44°25' E 008°50'0 0.0
2014-Sep-12 04:32N 44°25' E 008°50'0 0.0
2014-Sep-12 03:33N 44°25' E 008°50'0 0.0
2014-Sep-12 02:33N 44°25' E 008°50'0 0.0
2014-Sep-12 01:33N 44°25' E 008°50'0 0.0
2014-Sep-12 00:33N 44°25' E 008°50'0 0.0
2014-Sep-11 23:33N 44°25' E 008°50'0 0.0
2014-Sep-11 22:33N 44°25' E 008°50'0 0.0
2014-Sep-11 21:33N 44°25' E 008°50'0 0.0
2014-Sep-11 20:31N 44°25' E 008°50'0 0.0
2014-Sep-11 19:27N 44°25' E 008°50'0 0.0
2014-Sep-11 18:33N 44°25' E 008°50'0 0.0
2014-Sep-11 17:32N 44°25' E 008°50'0 0.0
2014-Sep-11 16:33N 44°25' E 008°50'0 0.0
2014-Sep-11 15:33N 44°25' E 008°50'0 0.0
2014-Sep-11 14:33N 44°25' E 008°50'0 0.0
2014-Sep-11 13:28N 44°25' E 008°50'0 0.0
2014-Sep-11 12:33N 44°25' E 008°50'0 0.0
2014-Sep-11 11:33N 44°25' E 008°50'0 0.0
2014-Sep-11 10:33N 44°25' E 008°50'0 0.0
2014-Sep-11 09:28N 44°25' E 008°50'0 0.0
2014-Sep-11 08:33N 44°25' E 008°50'0 0.0
2014-Sep-11 07:28N 44°25' E 008°50'0 0.0
2014-Sep-11 06:33N 44°25' E 008°50'0 0.1
2014-Sep-11 05:33N 44°25' E 008°50'6 6.1
2014-Sep-11 04:33N 44°20' E 008°47'1111.1
2014-Sep-11 03:33N 44°09' E 008°51'0 0.1
2014-Sep-11 02:33N 44°09' E 008°51'1 0.5
2014-Sep-11 01:33N 44°09' E 008°51'0 0.3
2014-Sep-11 00:33N 44°10' E 008°51'0 0.2
2014-Sep-10 23:33N 44°10' E 008°51'0 0.2
2014-Sep-10 22:33N 44°10' E 008°52'0 0.3
2014-Sep-10 21:33N 44°10' E 008°52'0 0.4
2014-Sep-10 20:33N 44°11' E 008°52'0 0.3
2014-Sep-10 19:33N 44°11' E 008°51'0 0.4
2014-Sep-10 18:33N 44°11' E 008°51'0 0.3
2014-Sep-10 17:33N 44°12' E 008°51'1 0.6
2014-Sep-10 16:33N 44°12' E 008°51'0 0.3
2014-Sep-10 15:33N 44°12' E 008°51'0 0.2
2014-Sep-10 14:33N 44°12' E 008°51'0 0.2
2014-Sep-10 13:33N 44°12' E 008°50'0 0.3
2014-Sep-10 12:33N 44°12' E 008°50'0 0.1
2014-Sep-10 11:33N 44°12' E 008°50'0 0.3
2014-Sep-10 10:33N 44°12' E 008°50'1 0.6
2014-Sep-10 09:33N 44°11' E 008°51'1 0.5
2014-Sep-10 08:18N 44°11' E 008°51'0 0.3
2014-Sep-10 07:33N 44°11' E 008°51'0 0.2
2014-Sep-10 06:31N 44°11' E 008°52'0 0.2
2014-Sep-10 04:30N 44°11' E 008°52'0 0.1
2014-Sep-10 03:33N 44°11' E 008°52'0 0.5
2014-Sep-10 02:33N 44°11' E 008°52'1 0.9
2014-Sep-10 01:33N 44°12' E 008°52'0 0.3
2014-Sep-10 00:32N 44°12' E 008°51'0 0.2
2014-Sep-09 23:31N 44°12' E 008°51'0 0.2
2014-Sep-09 22:33N 44°12' E 008°51'0 0.2
2014-Sep-09 21:33N 44°11' E 008°51'4 3.7
2014-Sep-09 20:33N 44°15' E 008°51'2 1.7
2014-Sep-09 19:32N 44°17' E 008°49'1111.3
2014-Sep-09 18:33N 44°06' E 008°52'1211.6
2014-Sep-09 17:33N 43°55' E 008°57'1211.9
2014-Sep-09 16:33N 43°44' E 009°04'1211.5
2014-Sep-09 15:33N 43°34' E 009°12'1111.3
2014-Sep-09 14:33N 43°24' E 009°19'1111.4
2014-Sep-09 13:33N 43°14' E 009°27'1212.3
2014-Sep-09 12:33N 43°03' E 009°35'40811.3
2014-Sep-08 00:33N 36°54' E 013°22'1111.4
2014-Sep-07 23:33N 36°47' E 013°33'  

Dump ship's entire track history